Time;durP1;ratioP1;P1;durP2;ratioP2;P2;SDS_P1;SDS_P2;PMS_P1;PMS_P2;Temp;Humidity;BMP_temperature;BMP_pressure;BME280_temperature;BME280_humidity;BME280_pressure;Samples;Min_cycle;Max_cycle;Signal;HPM_P1;HPM_P2
2022/06/20 00:01:53;;;;;;;3.40;1.33;;;;;;;;;;4972439;28;20026;-73
2022/06/20 00:04:19;;;;;;;4.88;1.48;;;;;;;;;;4965866;28;20159;-74
2022/06/20 00:06:45;;;;;;;6.53;1.45;;;;;;;;;;4967194;28;20393;-69
2022/06/20 00:09:12;;;;;;;4.45;1.42;;;;;;;;;;4965116;28;20027;-73
2022/06/20 00:11:45;;;;;;;2.42;0.90;;;;;;;;;;4967599;28;20030;-70
2022/06/20 00:16:47;;;;;;;5.05;1.48;;;;;;;;;;5079677;23;20451;-73
2022/06/20 00:19:13;;;;;;;3.13;1.20;;;;;;;;;;4973867;28;20069;-73
2022/06/20 00:21:39;;;;;;;2.17;1.05;;;;;;;;;;4973795;28;20023;-75
2022/06/20 00:24:05;;;;;;;4.43;1.20;;;;;;;;;;4973858;28;20031;-74
2022/06/20 00:26:31;;;;;;;4.85;1.20;;;;;;;;;;4973986;28;20456;-70
2022/06/20 00:28:56;;;;;;;5.45;1.30;;;;;;;;;;4973542;28;20023;-74
2022/06/20 00:31:23;;;;;;;5.43;1.50;;;;;;;;;;4973690;28;20069;-76
2022/06/20 00:33:48;;;;;;;3.38;1.30;;;;;;;;;;4973896;28;20110;-74
2022/06/20 00:36:14;;;;;;;4.75;1.40;;;;;;;;;;4974072;28;20105;-74
2022/06/20 00:38:42;;;;;;;5.57;1.83;;;;;;;;;;4974037;28;20039;-75
2022/06/20 00:41:19;;;;;;;3.17;1.13;;;;;;;;;;4973984;28;20027;-72
2022/06/20 00:43:47;;;;;;;4.55;1.50;;;;;;;;;;4973956;28;20023;-69
2022/06/20 00:46:30;;;;;;;2.45;1.20;;;;;;;;;;4973731;28;20215;-73
2022/06/20 00:49:06;;;;;;;5.47;1.40;;;;;;;;;;4973855;28;20035;-73
2022/06/20 00:51:47;;;;;;;2.67;1.45;;;;;;;;;;4973822;28;20081;-74
2022/06/20 00:54:46;;;;;;;4.82;1.55;;;;;;;;;;4973787;28;20027;-74
2022/06/20 00:57:22;;;;;;;6.22;1.70;;;;;;;;;;4973815;28;20034;-73
2022/06/20 00:59:53;;;;;;;4.75;1.60;;;;;;;;;;4973524;28;20029;-73
2022/06/20 01:02:33;;;;;;;3.63;1.52;;;;;;;;;;4975810;28;20030;-73
2022/06/20 01:05:02;;;;;;;6.47;2.08;;;;;;;;;;4975972;28;20073;-72
2022/06/20 01:08:00;;;;;;;4.80;1.83;;;;;;;;;;4976264;28;20546;-73
2022/06/20 01:10:30;;;;;;;4.07;1.70;;;;;;;;;;4955979;29;20090;-73
2022/06/20 01:13:11;;;;;;;4.30;1.50;;;;;;;;;;4955912;29;20059;-71
2022/06/20 01:15:40;;;;;;;3.55;1.73;;;;;;;;;;4957693;28;20058;-73
2022/06/20 01:18:15;;;;;;;5.07;1.52;;;;;;;;;;4975412;28;20038;-73
2022/06/20 01:20:42;;;;;;;6.28;1.75;;;;;;;;;;4975292;28;20050;-73
2022/06/20 01:23:16;;;;;;;4.07;1.83;;;;;;;;;;4975212;28;20365;-73
2022/06/20 01:26:03;;;;;;;4.43;1.80;;;;;;;;;;4975227;28;20522;-72
2022/06/20 01:28:34;;;;;;;3.88;1.77;;;;;;;;;;4974781;28;20099;-73
2022/06/20 01:31:00;;;;;;;4.82;1.70;;;;;;;;;;4975208;28;20113;-74
2022/06/20 01:33:26;;;;;;;5.43;1.60;;;;;;;;;;4974918;28;20125;-70
2022/06/20 01:38:39;;;;;;;4.72;1.55;;;;;;;;;;4974895;28;20078;-72
2022/06/20 01:43:50;;;;;;;6.25;1.80;;;;;;;;;;4975096;28;20033;-74
2022/06/20 01:46:16;;;;;;;5.82;2.42;;;;;;;;;;4987744;28;20034;-74
2022/06/20 01:48:54;;;;;;;6.60;2.42;;;;;;;;;;4996226;28;20073;-66
2022/06/20 01:51:35;;;;;;;7.35;2.20;;;;;;;;;;4981345;28;20457;-64
2022/06/20 01:54:02;;;;;;;7.68;2.40;;;;;;;;;;4976675;28;20089;-66
2022/06/20 01:56:28;;;;;;;4.00;1.70;;;;;;;;;;4976505;28;20559;-69
2022/06/20 01:59:06;;;;;;;8.38;2.25;;;;;;;;;;4976679;28;20106;-66
2022/06/20 02:01:34;;;;;;;5.20;1.83;;;;;;;;;;4976691;28;20054;-68
2022/06/20 02:04:03;;;;;;;4.43;2.58;;;;;;;;;;4976503;28;20431;-72
2022/06/20 02:06:29;;;;;;;3.92;1.63;;;;;;;;;;4976581;28;20516;-70
2022/06/20 02:08:57;;;;;;;3.17;1.80;;;;;;;;;;4976457;28;20039;-74
2022/06/20 02:11:39;;;;;;;7.90;2.08;;;;;;;;;;4976343;28;20445;-70
2022/06/20 02:14:14;;;;;;;5.25;1.80;;;;;;;;;;4975419;28;20066;-72
2022/06/20 02:16:44;;;;;;;3.03;1.67;;;;;;;;;;4974726;28;20054;-72
2022/06/20 02:19:14;;;;;;;5.40;1.83;;;;;;;;;;4955797;29;20126;-68
2022/06/20 02:21:42;;;;;;;3.30;1.60;;;;;;;;;;4957136;28;20078;-73
2022/06/20 02:24:17;;;;;;;5.93;1.90;;;;;;;;;;4956927;28;20027;-68
2022/06/20 02:26:48;;;;;;;6.20;1.90;;;;;;;;;;4956645;28;20106;-72
2022/06/20 02:29:21;;;;;;;;;;;;;;;;;;4957249;28;20023;-70
2022/06/20 02:31:53;;;;;;;6.28;2.10;;;;;;;;;;4956840;28;20016;-72
2022/06/20 02:34:19;;;;;;;6.70;2.38;;;;;;;;;;4956816;28;20114;-72
2022/06/20 02:36:45;;;;;;;7.13;2.10;;;;;;;;;;4956596;29;20071;-67
2022/06/20 02:39:11;;;;;;;6.18;2.15;;;;;;;;;;4956537;28;20058;-73
2022/06/20 02:41:39;;;;;;;9.05;2.30;;;;;;;;;;4956317;28;20503;-73
2022/06/20 02:44:15;;;;;;;6.07;2.42;;;;;;;;;;4956514;28;20031;-70
2022/06/20 02:46:42;;;;;;;7.88;2.88;;;;;;;;;;4956451;28;20559;-73
2022/06/20 02:49:09;;;;;;;8.80;2.97;;;;;;;;;;4956514;28;20038;-72
2022/06/20 02:51:37;;;;;;;7.65;2.67;;;;;;;;;;4956449;28;20019;-72
2022/06/20 02:54:06;;;;;;;8.23;2.65;;;;;;;;;;4956295;28;20027;-73
2022/06/20 02:56:37;;;;;;;9.50;2.55;;;;;;;;;;4956024;28;20031;-66
2022/06/20 02:59:11;;;;;;;5.45;2.60;;;;;;;;;;4956225;28;20057;-65
2022/06/20 03:01:44;;;;;;;6.82;2.92;;;;;;;;;;4956436;29;20039;-70
2022/06/20 03:04:10;;;;;;;11.13;3.20;;;;;;;;;;4956197;28;20035;-68
2022/06/20 03:06:50;;;;;;;7.95;3.28;;;;;;;;;;4955960;28;20027;-73
2022/06/20 03:09:18;;;;;;;;;;;;;;;;;;4956289;28;20023;-72
2022/06/20 03:11:44;;;;;;;8.57;3.30;;;;;;;;;;4955982;28;20017;-72
2022/06/20 03:14:16;;;;;;;12.57;2.80;;;;;;;;;;4955828;28;20119;-73
2022/06/20 03:16:42;;;;;;;5.72;2.80;;;;;;;;;;4955387;28;20058;-73
2022/06/20 03:19:16;;;;;;;8.02;3.05;;;;;;;;;;4955924;28;20500;-73
2022/06/20 03:21:43;;;;;;;8.63;3.80;;;;;;;;;;4955928;28;20050;-72
2022/06/20 03:24:14;;;;;;;7.85;3.38;;;;;;;;;;4955522;28;20499;-72
2022/06/20 03:26:40;;;;;;;7.53;3.13;;;;;;;;;;4955757;29;20492;-68
2022/06/20 03:29:09;;;;;;;10.07;3.03;;;;;;;;;;4955738;28;20031;-72
2022/06/20 03:31:35;;;;;;;7.97;3.10;;;;;;;;;;4955611;28;20027;-71
2022/06/20 03:34:00;;;;;;;6.55;3.05;;;;;;;;;;4955386;28;20047;-68
2022/06/20 03:36:27;;;;;;;9.35;3.13;;;;;;;;;;4955588;28;20032;-73
2022/06/20 03:38:55;;;;;;;14.27;3.20;;;;;;;;;;4955365;28;20042;-72
2022/06/20 03:41:23;;;;;;;8.07;3.25;;;;;;;;;;4955503;28;20028;-72
2022/06/20 03:44:20;;;;;;;10.10;3.83;;;;;;;;;;4955370;28;20376;-70
2022/06/20 03:46:53;;;;;;;8.13;3.78;;;;;;;;;;4933876;29;20048;-72
2022/06/20 03:49:32;;;;;;;9.10;4.60;;;;;;;;;;4933989;29;20032;-73
2022/06/20 03:52:12;;;;;;;8.82;3.88;;;;;;;;;;4934028;29;20067;-74
2022/06/20 03:54:49;;;;;;;10.95;5.22;;;;;;;;;;4933946;29;20039;-73
2022/06/20 03:57:42;;;;;;;13.35;4.60;;;;;;;;;;4933998;29;20063;-73
2022/06/20 04:00:15;;;;;;;11.43;5.60;;;;;;;;;;4933501;29;20036;-72
2022/06/20 04:02:53;;;;;;;14.23;6.13;;;;;;;;;;4933907;29;20036;-72
2022/06/20 04:05:25;;;;;;;13.40;5.97;;;;;;;;;;4933713;29;20448;-73
2022/06/20 04:08:08;;;;;;;12.82;6.18;;;;;;;;;;4933650;29;20059;-72
2022/06/20 04:13:40;;;;;;;15.88;6.35;;;;;;;;;;4933740;29;20064;-66
2022/06/20 04:16:18;;;;;;;16.52;6.38;;;;;;;;;;4933412;29;20081;-72
2022/06/20 04:18:50;;;;;;;13.65;6.60;;;;;;;;;;4951044;29;20033;-72
2022/06/20 04:21:52;;;;;;;12.95;5.97;;;;;;;;;;4952394;29;20062;-73
2022/06/20 04:24:43;;;;;;;13.32;6.25;;;;;;;;;;4954460;29;20047;-71
2022/06/20 04:27:26;;;;;;;13.38;5.15;;;;;;;;;;4954411;29;20511;-72
2022/06/20 04:30:02;;;;;;;9.23;4.63;;;;;;;;;;4954802;28;20034;-72
2022/06/20 04:32:32;;;;;;;12.95;4.43;;;;;;;;;;4954766;28;20059;-70
2022/06/20 04:35:13;;;;;;;9.40;4.13;;;;;;;;;;4954727;28;20114;-69
2022/06/20 04:37:57;;;;;;;6.80;2.75;;;;;;;;;;4953974;28;20023;-73
2022/06/20 04:40:40;;;;;;;8.80;2.97;;;;;;;;;;4954674;29;20030;-72
2022/06/20 04:43:19;;;;;;;9.38;3.83;;;;;;;;;;4954515;28;20027;-71
2022/06/20 04:45:58;;;;;;;5.28;2.72;;;;;;;;;;4954635;28;20420;-72
2022/06/20 04:48:25;;;;;;;8.37;2.47;;;;;;;;;;4954413;28;20015;-73
2022/06/20 04:51:01;;;;;;;6.05;2.72;;;;;;;;;;4954186;28;20042;-71
2022/06/20 04:53:32;;;;;;;7.88;2.53;;;;;;;;;;4954379;28;20483;-72
2022/06/20 04:56:01;;;;;;;4.75;2.30;;;;;;;;;;4954185;28;20035;-70
2022/06/20 04:58:31;;;;;;;6.65;2.83;;;;;;;;;;4954206;28;20024;-72
2022/06/20 05:00:57;;;;;;;6.65;2.70;;;;;;;;;;4954432;28;20090;-71
2022/06/20 05:03:27;;;;;;;8.15;4.10;;;;;;;;;;4954469;28;20031;-73
2022/06/20 05:05:55;;;;;;;9.33;4.10;;;;;;;;;;4954027;28;20090;-72
2022/06/20 05:08:27;;;;;;;6.75;2.88;;;;;;;;;;4954354;28;20302;-70
2022/06/20 05:11:08;;;;;;;5.72;2.45;;;;;;;;;;4954309;28;20436;-74
2022/06/20 05:13:40;;;;;;;8.13;2.47;;;;;;;;;;4954280;28;20090;-70
2022/06/20 05:16:30;;;;;;;6.43;2.42;;;;;;;;;;4953978;28;20078;-74
2022/06/20 05:19:00;;;;;;;7.93;2.20;;;;;;;;;;4953985;28;20448;-72
2022/06/20 05:21:37;;;;;;;4.68;1.90;;;;;;;;;;4953886;28;20400;-72
2022/06/20 05:24:12;;;;;;;4.93;1.90;;;;;;;;;;4954091;28;20023;-72
2022/06/20 05:26:42;;;;;;;9.23;2.28;;;;;;;;;;4954072;28;20023;-72
2022/06/20 05:29:14;;;;;;;6.43;2.20;;;;;;;;;;4954026;28;20049;-72
2022/06/20 05:31:45;;;;;;;6.75;2.20;;;;;;;;;;4954265;28;20090;-70
2022/06/20 05:34:33;;;;;;;;;;;;;;;;;;4968911;28;20124;-71
2022/06/20 05:37:05;;;;;;;7.43;1.85;;;;;;;;;;4948714;28;19914;-72
2022/06/20 05:39:53;;;;;;;5.10;2.10;;;;;;;;;;4954047;28;20090;-72
2022/06/20 05:42:19;;;;;;;7.13;2.30;;;;;;;;;;4948601;29;20101;-72
2022/06/20 05:44:45;;;;;;;5.57;2.28;;;;;;;;;;4953835;28;20106;-72
2022/06/20 05:47:32;;;;;;;6.00;2.03;;;;;;;;;;4953873;28;20531;-71
2022/06/20 05:50:13;;;;;;;9.48;2.55;;;;;;;;;;4956507;28;20106;-72
2022/06/20 05:52:40;;;;;;;;;;;;;;;;;;4957859;28;20035;-72
2022/06/20 05:55:09;;;;;;;6.68;2.83;;;;;;;;;;4957198;28;19920;-72
2022/06/20 05:57:36;;;;;;;5.90;2.50;;;;;;;;;;4957420;28;20144;-72
2022/06/20 06:00:16;;;;;;;6.93;2.00;;;;;;;;;;4957187;28;20467;-72
2022/06/20 06:02:53;;;;;;;5.07;2.20;;;;;;;;;;4957031;28;20039;-72
2022/06/20 06:05:36;;;;;;;5.63;2.60;;;;;;;;;;4956880;28;20031;-72
2022/06/20 06:08:26;;;;;;;6.75;1.98;;;;;;;;;;4957239;28;20031;-72
2022/06/20 06:11:05;;;;;;;7.97;2.47;;;;;;;;;;4957060;29;20484;-72
2022/06/20 06:14:00;;;;;;;9.13;2.05;;;;;;;;;;4956883;28;20032;-72
2022/06/20 06:16:49;;;;;;;6.43;1.80;;;;;;;;;;4967765;28;20143;-71
2022/06/20 06:19:36;;;;;;;3.83;1.75;;;;;;;;;;4981327;28;20332;-70
2022/06/20 06:22:06;;;;;;;6.90;1.70;;;;;;;;;;4982155;28;20054;-69
2022/06/20 06:24:35;;;;;;;7.53;1.88;;;;;;;;;;4966276;28;20039;-68
2022/06/20 06:27:02;;;;;;;4.93;1.40;;;;;;;;;;4990507;28;20049;-67
2022/06/20 06:29:50;;;;;;;5.15;1.95;;;;;;;;;;4966832;28;20072;-69
2022/06/20 06:32:39;;;;;;;2.70;1.65;;;;;;;;;;4980162;28;20038;-69
2022/06/20 06:35:18;;;;;;;4.72;1.40;;;;;;;;;;4966792;28;20015;-66
2022/06/20 06:38:05;;;;;;;3.38;1.42;;;;;;;;;;4984387;28;20027;-66
2022/06/20 06:40:49;;;;;;;4.10;1.52;;;;;;;;;;4991552;28;20243;-69
2022/06/20 06:43:28;;;;;;;4.75;1.63;;;;;;;;;;4981661;28;20026;-69
2022/06/20 06:45:58;;;;;;;4.63;1.80;;;;;;;;;;4983120;28;20031;-69
2022/06/20 06:48:42;;;;;;;4.72;1.50;;;;;;;;;;4991061;28;20029;-68
2022/06/20 06:51:18;;;;;;;6.00;1.90;;;;;;;;;;4967544;28;20029;-71
2022/06/20 06:53:58;;;;;;;5.13;1.65;;;;;;;;;;4984314;28;20074;-71
2022/06/20 06:56:34;;;;;;;7.45;1.50;;;;;;;;;;4991289;28;20093;-71
2022/06/20 06:59:13;;;;;;;5.57;1.70;;;;;;;;;;4959492;28;21704;-64
2022/06/20 07:01:47;;;;;;;7.57;1.90;;;;;;;;;;4980862;28;20033;-72
2022/06/20 07:04:22;;;;;;;4.22;1.60;;;;;;;;;;4968981;28;20020;-67
2022/06/20 07:06:53;;;;;;;7.78;2.45;;;;;;;;;;4976587;28;20513;-64
2022/06/20 07:09:29;;;;;;;6.82;2.40;;;;;;;;;;4993788;28;20178;-70
2022/06/20 07:12:06;;;;;;;7.00;2.10;;;;;;;;;;4992172;28;20033;-72
2022/06/20 07:14:41;;;;;;;5.25;2.13;;;;;;;;;;4993774;28;20431;-69
2022/06/20 07:17:11;;;;;;;3.95;2.08;;;;;;;;;;4994186;28;20039;-71
2022/06/20 07:19:42;;;;;;;7.32;2.33;;;;;;;;;;4994405;28;20431;-69
2022/06/20 07:22:09;;;;;;;;;;;;;;;;;;4995116;28;20034;-72
2022/06/20 07:24:35;;;;;;;5.22;2.20;;;;;;;;;;4994424;28;19920;-70
2022/06/20 07:27:02;;;;;;;5.53;2.30;;;;;;;;;;4994387;28;20061;-71
2022/06/20 07:29:35;;;;;;;7.00;2.20;;;;;;;;;;4994440;28;20072;-68
2022/06/20 07:32:27;;;;;;;7.03;2.67;;;;;;;;;;4994189;28;20041;-68
2022/06/20 07:34:58;;;;;;;8.38;2.38;;;;;;;;;;4994402;28;20062;-71
2022/06/20 07:37:29;;;;;;;4.55;1.83;;;;;;;;;;4994414;28;20022;-72
2022/06/20 07:40:06;;;;;;;5.28;1.92;;;;;;;;;;4994317;28;20105;-72
2022/06/20 07:42:50;;;;;;;6.78;2.10;;;;;;;;;;4994330;28;20030;-71
2022/06/20 07:45:37;;;;;;;4.13;2.30;;;;;;;;;;4993920;28;20092;-69
2022/06/20 07:48:10;;;;;;;6.30;2.33;;;;;;;;;;4994168;28;20109;-71
2022/06/20 07:50:49;;;;;;;3.90;2.35;;;;;;;;;;4994157;28;20029;-71
2022/06/20 07:53:44;;;;;;;7.85;2.78;;;;;;;;;;4994006;28;20030;-70
2022/06/20 07:56:17;;;;;;;6.53;2.67;;;;;;;;;;4992483;28;20089;-70
2022/06/20 07:58:54;;;;;;;8.30;3.22;;;;;;;;;;4993581;28;20479;-71
2022/06/20 08:01:51;;;;;;;9.77;3.92;;;;;;;;;;4993794;28;20055;-69
2022/06/20 08:04:27;;;;;;;10.55;4.72;;;;;;;;;;4972361;28;20399;-69
2022/06/20 08:07:08;;;;;;;9.57;5.45;;;;;;;;;;4972379;28;20023;-72
2022/06/20 08:09:45;;;;;;;10.20;6.07;;;;;;;;;;4971795;28;20070;-70
2022/06/20 08:12:32;;;;;;;14.98;5.50;;;;;;;;;;4971481;28;20043;-70
2022/06/20 08:15:04;;;;;;;11.85;5.30;;;;;;;;;;4971489;28;20043;-70
2022/06/20 08:17:30;;;;;;;12.82;5.20;;;;;;;;;;4971873;28;20065;-72
2022/06/20 08:19:57;;;;;;;10.15;4.82;;;;;;;;;;4972053;28;20129;-70
2022/06/20 08:22:47;;;;;;;11.20;4.88;;;;;;;;;;4972056;28;20043;-72
2022/06/20 08:25:39;;;;;;;12.63;4.97;;;;;;;;;;4972111;28;20027;-71
2022/06/20 08:28:32;;;;;;;9.05;4.47;;;;;;;;;;4969633;28;20551;-67
2022/06/20 08:31:06;;;;;;;10.10;4.55;;;;;;;;;;4966547;28;20038;-68
2022/06/20 08:33:49;;;;;;;11.65;4.60;;;;;;;;;;4971830;28;20494;-71
2022/06/20 08:36:40;;;;;;;11.65;4.35;;;;;;;;;;4971907;28;20101;-69
2022/06/20 08:39:09;;;;;;;;;;;;;;;;;;4972307;28;20070;-70
2022/06/20 08:41:58;;;;;;;10.80;5.20;;;;;;;;;;4986401;28;19914;-70
2022/06/20 08:44:40;;;;;;;9.35;4.28;;;;;;;;;;4993204;28;20033;-73
2022/06/20 08:47:37;;;;;;;11.02;4.55;;;;;;;;;;4993383;28;20388;-71
2022/06/20 08:50:08;;;;;;;7.57;3.97;;;;;;;;;;4993366;28;20029;-72
2022/06/20 08:53:05;;;;;;;11.82;3.90;;;;;;;;;;4993154;28;20093;-71
2022/06/20 08:56:06;;;;;;;6.68;2.40;;;;;;;;;;4993021;28;20052;-71
2022/06/20 08:58:40;;;;;;;7.00;2.30;;;;;;;;;;4971222;28;20039;-70
2022/06/20 09:01:10;;;;;;;5.63;2.40;;;;;;;;;;4971827;28;20046;-68
2022/06/20 09:04:10;;;;;;;5.65;2.65;;;;;;;;;;4971643;28;20031;-68
2022/06/20 09:06:54;;;;;;;5.97;2.78;;;;;;;;;;4971572;28;20129;-69
2022/06/20 09:09:38;;;;;;;4.35;2.30;;;;;;;;;;4971711;28;20042;-72
2022/06/20 09:12:31;;;;;;;7.55;2.80;;;;;;;;;;4971546;28;20026;-70
2022/06/20 09:15:06;;;;;;;6.90;3.00;;;;;;;;;;4971751;28;20043;-67
2022/06/20 09:18:01;;;;;;;6.70;2.88;;;;;;;;;;4971403;28;20377;-72
2022/06/20 09:20:38;;;;;;;7.32;2.90;;;;;;;;;;4971652;28;20038;-71
2022/06/20 09:23:16;;;;;;;5.10;2.65;;;;;;;;;;4973111;28;20240;-68
2022/06/20 09:26:04;;;;;;;6.60;2.55;;;;;;;;;;4974938;28;20384;-72
2022/06/20 09:28:51;;;;;;;5.38;2.22;;;;;;;;;;4974993;28;20035;-68
2022/06/20 09:31:43;;;;;;;11.93;2.50;;;;;;;;;;4974852;28;20118;-72
2022/06/20 09:34:50;;;;;;;5.20;2.30;;;;;;;;;;4985878;28;20109;-70
2022/06/20 09:37:23;;;;;;;7.00;2.40;;;;;;;;;;4996288;28;20491;-72
2022/06/20 09:40:12;;;;;;;5.72;2.22;;;;;;;;;;4996617;28;20057;-71
2022/06/20 09:42:50;;;;;;;10.10;2.40;;;;;;;;;;4996594;28;20550;-70
2022/06/20 09:45:40;;;;;;;6.65;2.47;;;;;;;;;;4996243;28;20105;-71
2022/06/20 09:48:32;;;;;;;4.38;2.30;;;;;;;;;;4996469;28;20097;-70
2022/06/20 09:51:00;;;;;;;6.45;2.35;;;;;;;;;;4996369;28;20031;-71
2022/06/20 09:53:43;;;;;;;9.00;2.50;;;;;;;;;;4996403;28;20033;-72
2022/06/20 09:56:18;;;;;;;4.93;2.20;;;;;;;;;;4996087;28;20038;-72
2022/06/20 09:59:12;;;;;;;5.63;2.90;;;;;;;;;;4996346;28;20101;-72
2022/06/20 10:01:43;;;;;;;4.68;2.40;;;;;;;;;;4996222;28;20022;-73
2022/06/20 10:04:33;;;;;;;7.75;2.63;;;;;;;;;;4996005;28;20026;-72
2022/06/20 10:07:10;;;;;;;6.00;1.90;;;;;;;;;;4996407;28;20383;-72
2022/06/20 10:10:12;;;;;;;6.55;2.20;;;;;;;;;;4994414;28;20391;-69
2022/06/20 10:12:54;;;;;;;6.15;2.20;;;;;;;;;;4995765;28;20030;-71
2022/06/20 10:15:28;;;;;;;4.68;2.00;;;;;;;;;;4995564;28;20050;-70
2022/06/20 10:17:57;;;;;;;5.30;2.28;;;;;;;;;;4995582;28;20042;-72
2022/06/20 10:20:52;;;;;;;7.97;2.10;;;;;;;;;;4995728;28;20030;-71
2022/06/20 10:23:35;;;;;;;4.75;1.67;;;;;;;;;;4995931;28;20110;-72
2022/06/20 10:26:28;;;;;;;2.75;1.40;;;;;;;;;;4995459;28;20530;-73
2022/06/20 10:29:22;;;;;;;3.85;1.30;;;;;;;;;;4994237;28;20077;-73
2022/06/20 10:32:24;;;;;;;3.97;1.35;;;;;;;;;;4995662;28;20034;-67
2022/06/20 10:35:18;;;;;;;2.72;1.23;;;;;;;;;;4973087;28;20039;-72
2022/06/20 10:37:46;;;;;;;3.58;1.50;;;;;;;;;;4974019;28;20043;-72
2022/06/20 10:40:29;;;;;;;3.47;2.00;;;;;;;;;;4973562;28;20027;-71
2022/06/20 10:43:01;;;;;;;7.28;2.03;;;;;;;;;;4973755;28;20030;-70
2022/06/20 10:45:35;;;;;;;3.20;1.80;;;;;;;;;;4973560;28;20039;-71
2022/06/20 10:48:13;;;;;;;8.65;2.20;;;;;;;;;;4973766;28;20038;-72
2022/06/20 10:50:52;;;;;;;4.40;2.45;;;;;;;;;;4973616;28;20043;-69
2022/06/20 10:53:32;;;;;;;6.68;2.50;;;;;;;;;;4973505;28;20500;-70
2022/06/20 10:56:31;;;;;;;4.13;2.70;;;;;;;;;;4973875;28;20392;-69
2022/06/20 10:59:18;;;;;;;4.72;2.47;;;;;;;;;;4973875;28;20038;-69
2022/06/20 11:02:06;;;;;;;5.60;2.67;;;;;;;;;;4973680;28;20567;-70
2022/06/20 11:05:02;;;;;;;7.32;2.45;;;;;;;;;;4973426;28;20082;-69
2022/06/20 11:08:08;;;;;;;3.95;2.38;;;;;;;;;;4973162;28;20114;-71
2022/06/20 11:10:53;;;;;;;5.70;2.45;;;;;;;;;;4934956;29;20531;-70
2022/06/20 11:13:37;;;;;;;5.25;2.45;;;;;;;;;;4918837;29;20130;-70
2022/06/20 11:16:11;;;;;;;6.53;2.40;;;;;;;;;;4918506;29;20059;-69
2022/06/20 11:19:14;;;;;;;7.70;2.80;;;;;;;;;;4934477;29;20048;-71
2022/06/20 11:21:58;;;;;;;5.88;2.63;;;;;;;;;;4934599;29;20032;-72
2022/06/20 11:24:39;;;;;;;4.30;2.10;;;;;;;;;;4934464;29;20138;-70
2022/06/20 11:27:23;;;;;;;5.38;2.63;;;;;;;;;;4934699;29;20392;-71
2022/06/20 11:29:57;;;;;;;4.97;2.90;;;;;;;;;;4934641;29;20172;-69
2022/06/20 11:32:32;;;;;;;6.82;2.92;;;;;;;;;;4934604;29;20043;-70
2022/06/20 11:35:19;;;;;;;6.07;3.70;;;;;;;;;;4934535;29;20161;-68
2022/06/20 11:37:53;;;;;;;8.80;3.65;;;;;;;;;;4934326;29;20040;-70
2022/06/20 11:40:36;;;;;;;6.00;3.05;;;;;;;;;;4934655;29;20036;-70
2022/06/20 11:43:38;;;;;;;6.72;3.35;;;;;;;;;;4926250;29;20042;-71
2022/06/20 11:46:33;;;;;;;8.35;3.40;;;;;;;;;;4970566;28;20029;-70
2022/06/20 11:49:08;;;;;;;9.55;3.78;;;;;;;;;;4974644;28;20375;-71
2022/06/20 11:51:58;;;;;;;6.55;4.13;;;;;;;;;;4967968;28;20098;-68
2022/06/20 11:54:41;;;;;;;5.97;4.05;;;;;;;;;;4959069;28;20074;-72
2022/06/20 11:57:49;;;;;;;14.00;5.43;;;;;;;;;;4971807;28;20034;-71
2022/06/20 12:00:20;;;;;;;7.22;4.70;;;;;;;;;;4969550;28;20047;-71
2022/06/20 12:03:23;;;;;;;10.85;5.32;;;;;;;;;;4970724;28;20031;-73
2022/06/20 12:06:04;;;;;;;9.93;4.88;;;;;;;;;;4970492;28;20082;-72
2022/06/20 12:08:43;;;;;;;6.78;4.20;;;;;;;;;;4970615;28;20023;-72
2022/06/20 12:11:30;;;;;;;7.25;4.00;;;;;;;;;;4970928;28;20097;-71
2022/06/20 12:14:10;;;;;;;7.75;4.22;;;;;;;;;;4971373;28;20031;-73
2022/06/20 12:16:36;;;;;;;;;;;;;;;;;;4971163;28;20063;-70
2022/06/20 12:25:14;;;;;;;7.70;3.40;;;;;;;;;;4970722;28;20045;-72
2022/06/20 12:27:40;;;;;;;5.20;3.70;;;;;;;;;;4970937;28;20030;-71
2022/06/20 12:30:12;;;;;;;6.93;3.90;;;;;;;;;;4970044;28;20169;-72
2022/06/20 12:32:40;;;;;;;5.25;3.67;;;;;;;;;;4969831;28;20085;-69
2022/06/20 12:35:18;;;;;;;5.07;2.80;;;;;;;;;;4969740;28;21397;-66
2022/06/20 12:38:32;;;;;;;6.32;3.42;;;;;;;;;;4970408;28;20477;-73
2022/06/20 12:41:00;;;;;;;4.85;3.15;;;;;;;;;;4948728;29;20094;-74
2022/06/20 12:43:34;;;;;;;4.35;2.60;;;;;;;;;;4947623;29;20043;-72
2022/06/20 12:46:31;;;;;;;7.93;3.13;;;;;;;;;;4950503;29;20468;-72
2022/06/20 12:49:32;;;;;;;3.75;2.75;;;;;;;;;;4952105;29;20041;-71
2022/06/20 12:52:09;;;;;;;5.03;2.90;;;;;;;;;;4952451;29;20117;-73
2022/06/20 12:54:53;;;;;;;4.68;2.55;;;;;;;;;;4952313;29;20225;-74
2022/06/20 12:57:38;;;;;;;3.28;2.45;;;;;;;;;;4952798;28;20043;-73
2022/06/20 13:00:25;;;;;;;4.43;2.78;;;;;;;;;;4933073;29;20031;-71
2022/06/20 13:03:18;;;;;;;5.15;2.30;;;;;;;;;;4940795;29;20031;-72
2022/06/20 13:06:14;;;;;;;8.15;2.40;;;;;;;;;;4938632;29;20193;-72
2022/06/20 13:09:01;;;;;;;11.55;3.28;;;;;;;;;;4946260;29;20033;-74
2022/06/20 13:11:31;;;;;;;4.85;2.40;;;;;;;;;;4955715;29;20039;-74
2022/06/20 13:14:05;;;;;;;;;;;;;;;;;;4955388;29;20408;-68
2022/06/20 13:16:51;;;;;;;6.07;2.50;;;;;;;;;;4946636;28;19918;-74
2022/06/20 13:19:37;;;;;;;5.53;2.80;;;;;;;;;;4973447;28;20051;-72
2022/06/20 13:22:24;;;;;;;6.75;2.28;;;;;;;;;;4977352;28;20031;-74
2022/06/20 13:25:10;;;;;;;4.90;1.98;;;;;;;;;;4977156;28;20109;-74
2022/06/20 13:27:47;;;;;;;4.43;2.10;;;;;;;;;;4977040;28;20035;-73
2022/06/20 13:30:15;;;;;;;8.50;2.55;;;;;;;;;;4976938;28;20055;-73
2022/06/20 13:33:13;;;;;;;3.80;2.08;;;;;;;;;;4976988;28;20073;-75
2022/06/20 13:36:23;;;;;;;9.27;2.53;;;;;;;;;;4975322;28;20035;-74
2022/06/20 13:38:58;;;;;;;4.07;2.28;;;;;;;;;;4930919;29;20045;-67
2022/06/20 13:42:01;;;;;;;3.97;2.10;;;;;;;;;;4917196;29;20036;-66
2022/06/20 13:44:50;;;;;;;5.60;2.35;;;;;;;;;;4917057;29;20055;-67
2022/06/20 13:47:50;;;;;;;6.90;2.28;;;;;;;;;;4916851;29;20028;-67
2022/06/20 13:50:37;;;;;;;6.78;3.00;;;;;;;;;;4917279;29;20390;-66
2022/06/20 13:53:17;;;;;;;13.95;2.78;;;;;;;;;;4917199;29;20036;-66
2022/06/20 13:55:45;;;;;;;11.13;2.75;;;;;;;;;;4916589;29;20048;-66
2022/06/20 13:58:36;;;;;;;7.55;2.88;;;;;;;;;;4916933;29;20447;-66
2022/06/20 14:01:07;;;;;;;6.32;2.70;;;;;;;;;;4863551;29;20077;-67
2022/06/20 14:03:46;;;;;;;5.00;2.65;;;;;;;;;;4878991;29;20582;-65
2022/06/20 14:06:26;;;;;;;6.38;2.35;;;;;;;;;;4879214;29;20053;-65
2022/06/20 14:08:58;;;;;;;6.90;2.70;;;;;;;;;;4878210;29;20053;-65
2022/06/20 14:11:40;;;;;;;4.55;2.55;;;;;;;;;;4878702;29;20044;-65
2022/06/20 14:14:22;;;;;;;3.83;2.05;;;;;;;;;;4905039;29;20521;-68
2022/06/20 14:16:50;;;;;;;3.67;2.00;;;;;;;;;;4934904;29;20048;-70
2022/06/20 14:19:21;;;;;;;4.80;2.42;;;;;;;;;;4935565;29;20062;-65
2022/06/20 14:21:50;;;;;;;5.50;2.10;;;;;;;;;;4935448;29;20034;-73
2022/06/20 14:24:26;;;;;;;6.65;1.85;;;;;;;;;;4935275;29;20500;-72
2022/06/20 14:27:14;;;;;;;4.15;1.90;;;;;;;;;;4935279;29;20032;-68
2022/06/20 14:29:41;;;;;;;3.45;1.35;;;;;;;;;;4935209;29;20039;-72
2022/06/20 14:32:09;;;;;;;4.35;1.77;;;;;;;;;;4935004;29;20067;-73
2022/06/20 14:37:51;;;;;;;2.97;1.73;;;;;;;;;;4904253;29;20421;-73
2022/06/20 14:40:27;;;;;;;10.80;2.00;;;;;;;;;;4916265;29;20104;-73
2022/06/20 14:42:59;;;;;;;3.70;1.90;;;;;;;;;;4916208;29;20040;-72
2022/06/20 14:45:30;;;;;;;5.95;2.20;;;;;;;;;;4915764;29;20095;-69
2022/06/20 14:47:56;;;;;;;4.47;1.90;;;;;;;;;;4916097;29;20032;-70
2022/06/20 14:50:27;;;;;;;5.75;1.73;;;;;;;;;;4900220;29;20039;-69
2022/06/20 14:53:01;;;;;;;6.10;1.70;;;;;;;;;;4916114;29;20075;-70
2022/06/20 14:55:36;;;;;;;7.38;1.38;;;;;;;;;;4915571;29;20047;-72
2022/06/20 14:58:20;;;;;;;3.65;1.60;;;;;;;;;;4915887;29;20036;-69
2022/06/20 15:01:05;;;;;;;4.57;1.63;;;;;;;;;;4915423;29;20426;-71
2022/06/20 15:03:33;;;;;;;3.88;1.77;;;;;;;;;;4915621;29;20722;-71
2022/06/20 15:06:11;;;;;;;6.03;2.08;;;;;;;;;;4899896;29;20509;-69
2022/06/20 15:08:52;;;;;;;4.65;1.60;;;;;;;;;;4900005;29;20043;-73
2022/06/20 15:11:26;;;;;;;4.22;1.70;;;;;;;;;;4915543;29;20144;-73
2022/06/20 15:14:14;;;;;;;5.10;1.70;;;;;;;;;;4932367;28;20059;-73
2022/06/20 15:17:01;;;;;;;4.03;1.40;;;;;;;;;;4975551;28;20050;-72
2022/06/20 15:19:38;;;;;;;2.88;1.00;;;;;;;;;;4994463;28;20034;-74
2022/06/20 15:22:31;;;;;;;2.45;1.10;;;;;;;;;;4994106;28;20057;-74
2022/06/20 15:25:15;;;;;;;3.85;0.90;;;;;;;;;;4994380;28;20550;-74
2022/06/20 15:28:12;;;;;;;4.32;0.90;;;;;;;;;;4994391;28;20391;-73
2022/06/20 15:31:04;;;;;;;2.42;0.82;;;;;;;;;;4994414;28;20410;-74
2022/06/20 15:33:29;;;;;;;1.77;0.88;;;;;;;;;;4991421;28;20559;-75
2022/06/20 15:36:03;;;;;;;1.45;0.95;;;;;;;;;;4994106;28;20122;-72
2022/06/20 15:38:35;;;;;;;3.67;0.95;;;;;;;;;;4994039;28;20357;-73
2022/06/20 15:41:13;;;;;;;12.85;1.20;;;;;;;;;;4994064;28;20029;-74
2022/06/20 15:43:57;;;;;;;2.13;0.95;;;;;;;;;;4993737;28;20141;-74
2022/06/20 15:46:52;;;;;;;1.65;1.10;;;;;;;;;;4993968;28;20078;-74
2022/06/20 15:49:39;;;;;;;6.50;1.60;;;;;;;;;;4993956;28;20022;-71
2022/06/20 15:52:23;;;;;;;6.97;1.58;;;;;;;;;;4994039;28;20036;-73
2022/06/20 15:55:06;;;;;;;4.20;1.73;;;;;;;;;;4993708;28;20052;-73
2022/06/20 15:57:55;;;;;;;4.80;2.05;;;;;;;;;;4993482;28;20113;-71
2022/06/20 16:00:42;;;;;;;16.77;7.82;;;;;;;;;;4992464;28;20398;-73
2022/06/20 16:03:47;;;;;;;5.38;2.55;;;;;;;;;;4993744;28;20022;-73
2022/06/20 16:06:35;;;;;;;6.10;1.30;;;;;;;;;;4993768;28;20037;-71
2022/06/20 16:09:23;;;;;;;7.95;1.70;;;;;;;;;;4993731;28;20399;-69
2022/06/20 16:11:52;;;;;;;3.53;1.17;;;;;;;;;;4993415;28;20026;-70